sensor_id;sensor_type;location;lat;lon;timestamp;P1;durP1;ratioP1;P2;durP2;ratioP2
10910;SDS011;5508;49.150;11.030;2023-08-20T00:01:13;7.30;;;5.90;;
10910;SDS011;5508;49.150;11.030;2023-08-20T00:04:16;8.38;;;5.90;;
10910;SDS011;5508;49.150;11.030;2023-08-20T00:07:17;6.72;;;5.57;;
10910;SDS011;5508;49.150;11.030;2023-08-20T00:10:18;6.65;;;5.82;;
10910;SDS011;5508;49.150;11.030;2023-08-20T00:13:19;10.77;;;6.00;;
10910;SDS011;5508;49.150;11.030;2023-08-20T00:16:19;9.88;;;6.60;;
10910;SDS011;5508;49.150;11.030;2023-08-20T00:19:20;9.95;;;5.97;;
10910;SDS011;5508;49.150;11.030;2023-08-20T00:22:22;11.27;;;6.63;;
10910;SDS011;5508;49.150;11.030;2023-08-20T00:25:23;8.30;;;5.55;;
10910;SDS011;5508;49.150;11.030;2023-08-20T00:28:24;9.10;;;6.10;;
10910;SDS011;5508;49.150;11.030;2023-08-20T00:31:25;7.72;;;5.40;;
10910;SDS011;5508;49.150;11.030;2023-08-20T00:34:25;9.02;;;5.95;;
10910;SDS011;5508;49.150;11.030;2023-08-20T00:37:26;7.43;;;6.00;;
10910;SDS011;5508;49.150;11.030;2023-08-20T00:40:27;7.15;;;5.68;;
10910;SDS011;5508;49.150;11.030;2023-08-20T00:43:27;8.82;;;5.82;;
10910;SDS011;5508;49.150;11.030;2023-08-20T00:46:28;8.35;;;5.82;;
10910;SDS011;5508;49.150;11.030;2023-08-20T00:49:29;8.18;;;6.80;;
10910;SDS011;5508;49.150;11.030;2023-08-20T00:52:31;7.75;;;6.63;;
10910;SDS011;5508;49.150;11.030;2023-08-20T00:55:32;8.18;;;5.65;;
10910;SDS011;5508;49.150;11.030;2023-08-20T00:58:33;10.45;;;6.32;;
10910;SDS011;5508;49.150;11.030;2023-08-20T01:01:33;7.72;;;6.45;;
10910;SDS011;5508;49.150;11.030;2023-08-20T01:04:34;8.75;;;6.38;;
10910;SDS011;5508;49.150;11.030;2023-08-20T01:11:00;8.02;;;6.22;;
10910;SDS011;5508;49.150;11.030;2023-08-20T01:14:14;7.40;;;5.88;;
10910;SDS011;5508;49.150;11.030;2023-08-20T01:17:16;8.68;;;6.05;;
10910;SDS011;5508;49.150;11.030;2023-08-20T01:20:16;7.10;;;5.75;;
10910;SDS011;5508;49.150;11.030;2023-08-20T01:23:23;9.82;;;7.13;;
10910;SDS011;5508;49.150;11.030;2023-08-20T01:30:24;7.22;;;6.53;;
10910;SDS011;5508;49.150;11.030;2023-08-20T01:33:25;9.75;;;6.43;;
10910;SDS011;5508;49.150;11.030;2023-08-20T01:36:26;9.98;;;6.43;;
10910;SDS011;5508;49.150;11.030;2023-08-20T01:39:27;10.15;;;6.55;;
10910;SDS011;5508;49.150;11.030;2023-08-20T01:42:28;8.27;;;6.22;;
10910;SDS011;5508;49.150;11.030;2023-08-20T01:45:28;9.05;;;6.72;;
10910;SDS011;5508;49.150;11.030;2023-08-20T01:48:29;8.52;;;6.05;;
10910;SDS011;5508;49.150;11.030;2023-08-20T01:51:30;7.95;;;7.03;;
10910;SDS011;5508;49.150;11.030;2023-08-20T01:54:30;9.85;;;6.88;;
10910;SDS011;5508;49.150;11.030;2023-08-20T01:57:31;7.93;;;6.85;;
10910;SDS011;5508;49.150;11.030;2023-08-20T02:00:32;8.50;;;6.90;;
10910;SDS011;5508;49.150;11.030;2023-08-20T02:03:34;7.47;;;6.22;;
10910;SDS011;5508;49.150;11.030;2023-08-20T02:06:36;7.53;;;6.45;;
10910;SDS011;5508;49.150;11.030;2023-08-20T02:09:37;8.75;;;7.03;;
10910;SDS011;5508;49.150;11.030;2023-08-20T02:12:37;8.85;;;7.00;;
10910;SDS011;5508;49.150;11.030;2023-08-20T02:15:38;8.43;;;6.70;;
10910;SDS011;5508;49.150;11.030;2023-08-20T02:18:38;10.27;;;6.68;;
10910;SDS011;5508;49.150;11.030;2023-08-20T02:21:39;7.20;;;6.50;;
10910;SDS011;5508;49.150;11.030;2023-08-20T02:24:40;14.43;;;6.72;;
10910;SDS011;5508;49.150;11.030;2023-08-20T02:27:40;7.32;;;6.45;;
10910;SDS011;5508;49.150;11.030;2023-08-20T02:30:42;8.13;;;6.22;;
10910;SDS011;5508;49.150;11.030;2023-08-20T02:33:43;7.68;;;6.97;;
10910;SDS011;5508;49.150;11.030;2023-08-20T02:36:44;8.60;;;6.55;;
10910;SDS011;5508;49.150;11.030;2023-08-20T02:39:44;10.73;;;7.35;;
10910;SDS011;5508;49.150;11.030;2023-08-20T02:42:45;10.00;;;6.88;;
10910;SDS011;5508;49.150;11.030;2023-08-20T02:45:45;7.65;;;6.35;;
10910;SDS011;5508;49.150;11.030;2023-08-20T02:48:46;8.32;;;6.28;;
10910;SDS011;5508;49.150;11.030;2023-08-20T02:51:46;9.88;;;6.93;;
10910;SDS011;5508;49.150;11.030;2023-08-20T02:54:47;10.93;;;6.00;;
10910;SDS011;5508;49.150;11.030;2023-08-20T02:57:48;7.07;;;6.38;;
10910;SDS011;5508;49.150;11.030;2023-08-20T03:00:48;7.45;;;6.68;;
10910;SDS011;5508;49.150;11.030;2023-08-20T03:03:49;11.02;;;6.15;;
10910;SDS011;5508;49.150;11.030;2023-08-20T03:06:49;8.38;;;6.40;;
10910;SDS011;5508;49.150;11.030;2023-08-20T03:09:50;7.40;;;6.60;;
10910;SDS011;5508;49.150;11.030;2023-08-20T03:12:51;7.40;;;6.57;;
10910;SDS011;5508;49.150;11.030;2023-08-20T03:15:51;8.90;;;6.75;;
10910;SDS011;5508;49.150;11.030;2023-08-20T03:18:52;9.67;;;7.50;;
10910;SDS011;5508;49.150;11.030;2023-08-20T03:21:52;13.52;;;7.75;;
10910;SDS011;5508;49.150;11.030;2023-08-20T03:24:53;14.43;;;7.22;;
10910;SDS011;5508;49.150;11.030;2023-08-20T03:27:54;10.43;;;7.85;;
10910;SDS011;5508;49.150;11.030;2023-08-20T03:30:58;11.05;;;7.22;;
10910;SDS011;5508;49.150;11.030;2023-08-20T03:34:00;7.95;;;7.15;;
10910;SDS011;5508;49.150;11.030;2023-08-20T03:37:00;7.55;;;6.82;;
10910;SDS011;5508;49.150;11.030;2023-08-20T03:40:01;9.47;;;7.93;;
10910;SDS011;5508;49.150;11.030;2023-08-20T03:43:04;8.38;;;7.00;;
10910;SDS011;5508;49.150;11.030;2023-08-20T03:46:05;9.53;;;7.07;;
10910;SDS011;5508;49.150;11.030;2023-08-20T03:49:06;7.17;;;6.47;;
10910;SDS011;5508;49.150;11.030;2023-08-20T03:52:06;7.70;;;6.27;;
10910;SDS011;5508;49.150;11.030;2023-08-20T03:55:07;8.27;;;6.40;;
10910;SDS011;5508;49.150;11.030;2023-08-20T03:58:08;9.47;;;6.47;;
10910;SDS011;5508;49.150;11.030;2023-08-20T04:01:08;11.33;;;6.87;;
10910;SDS011;5508;49.150;11.030;2023-08-20T04:04:09;9.23;;;6.67;;
10910;SDS011;5508;49.150;11.030;2023-08-20T04:07:09;12.63;;;6.50;;
10910;SDS011;5508;49.150;11.030;2023-08-20T04:10:10;7.40;;;6.70;;
10910;SDS011;5508;49.150;11.030;2023-08-20T04:13:10;7.27;;;6.57;;
10910;SDS011;5508;49.150;11.030;2023-08-20T04:16:12;7.50;;;6.80;;
10910;SDS011;5508;49.150;11.030;2023-08-20T04:19:13;8.47;;;7.03;;
10910;SDS011;5508;49.150;11.030;2023-08-20T04:22:14;9.83;;;7.63;;
10910;SDS011;5508;49.150;11.030;2023-08-20T04:25:15;8.93;;;7.07;;
10910;SDS011;5508;49.150;11.030;2023-08-20T04:28:15;8.40;;;7.53;;
10910;SDS011;5508;49.150;11.030;2023-08-20T04:31:16;7.53;;;6.87;;
10910;SDS011;5508;49.150;11.030;2023-08-20T04:34:17;7.97;;;7.17;;
10910;SDS011;5508;49.150;11.030;2023-08-20T04:37:20;9.13;;;7.33;;
10910;SDS011;5508;49.150;11.030;2023-08-20T04:40:21;8.20;;;6.63;;
10910;SDS011;5508;49.150;11.030;2023-08-20T04:43:22;21.43;;;8.10;;
10910;SDS011;5508;49.150;11.030;2023-08-20T04:46:22;8.60;;;7.80;;
10910;SDS011;5508;49.150;11.030;2023-08-20T04:49:23;11.13;;;7.17;;
10910;SDS011;5508;49.150;11.030;2023-08-20T04:52:28;8.10;;;7.10;;
10910;SDS011;5508;49.150;11.030;2023-08-20T04:55:28;7.13;;;6.43;;
10910;SDS011;5508;49.150;11.030;2023-08-20T04:58:29;7.53;;;6.90;;
10910;SDS011;5508;49.150;11.030;2023-08-20T05:01:30;7.97;;;7.17;;
10910;SDS011;5508;49.150;11.030;2023-08-20T05:04:30;9.67;;;7.20;;
10910;SDS011;5508;49.150;11.030;2023-08-20T05:07:31;8.87;;;7.03;;
10910;SDS011;5508;49.150;11.030;2023-08-20T05:10:32;10.43;;;7.10;;
10910;SDS011;5508;49.150;11.030;2023-08-20T05:13:33;9.45;;;7.50;;
10910;SDS011;5508;49.150;11.030;2023-08-20T05:16:33;9.63;;;6.90;;
10910;SDS011;5508;49.150;11.030;2023-08-20T05:19:34;7.78;;;6.85;;
10910;SDS011;5508;49.150;11.030;2023-08-20T05:22:34;9.02;;;7.78;;
10910;SDS011;5508;49.150;11.030;2023-08-20T05:25:35;8.77;;;7.03;;
10910;SDS011;5508;49.150;11.030;2023-08-20T05:28:36;8.48;;;6.82;;
10910;SDS011;5508;49.150;11.030;2023-08-20T05:31:36;9.75;;;6.78;;
10910;SDS011;5508;49.150;11.030;2023-08-20T05:34:37;10.95;;;7.00;;
10910;SDS011;5508;49.150;11.030;2023-08-20T05:37:37;8.93;;;6.50;;
10910;SDS011;5508;49.150;11.030;2023-08-20T05:40:38;9.63;;;7.10;;
10910;SDS011;5508;49.150;11.030;2023-08-20T05:43:39;7.97;;;6.90;;
10910;SDS011;5508;49.150;11.030;2023-08-20T05:46:39;7.35;;;6.57;;
10910;SDS011;5508;49.150;11.030;2023-08-20T05:49:40;11.00;;;7.07;;
10910;SDS011;5508;49.150;11.030;2023-08-20T05:52:41;8.85;;;6.95;;
10910;SDS011;5508;49.150;11.030;2023-08-20T05:55:41;9.32;;;7.07;;
10910;SDS011;5508;49.150;11.030;2023-08-20T05:58:42;12.00;;;6.50;;
10910;SDS011;5508;49.150;11.030;2023-08-20T06:01:43;7.18;;;6.47;;
10910;SDS011;5508;49.150;11.030;2023-08-20T06:04:44;7.40;;;6.70;;
10910;SDS011;5508;49.150;11.030;2023-08-20T06:07:45;8.27;;;6.95;;
10910;SDS011;5508;49.150;11.030;2023-08-20T06:10:46;7.45;;;6.72;;
10910;SDS011;5508;49.150;11.030;2023-08-20T06:13:47;9.60;;;6.60;;
10910;SDS011;5508;49.150;11.030;2023-08-20T06:16:47;9.38;;;6.55;;
10910;SDS011;5508;49.150;11.030;2023-08-20T06:19:48;8.48;;;6.70;;
10910;SDS011;5508;49.150;11.030;2023-08-20T06:22:48;13.27;;;6.97;;
10910;SDS011;5508;49.150;11.030;2023-08-20T06:25:52;9.45;;;6.65;;
10910;SDS011;5508;49.150;11.030;2023-08-20T06:28:52;8.90;;;7.05;;
10910;SDS011;5508;49.150;11.030;2023-08-20T06:31:53;9.80;;;6.82;;
10910;SDS011;5508;49.150;11.030;2023-08-20T06:34:53;7.55;;;6.18;;
10910;SDS011;5508;49.150;11.030;2023-08-20T06:37:54;11.98;;;7.10;;
10910;SDS011;5508;49.150;11.030;2023-08-20T06:40:55;9.88;;;7.13;;
10910;SDS011;5508;49.150;11.030;2023-08-20T06:43:56;10.20;;;6.35;;
10910;SDS011;5508;49.150;11.030;2023-08-20T06:46:57;6.95;;;6.25;;
10910;SDS011;5508;49.150;11.030;2023-08-20T06:49:57;11.50;;;6.63;;
10910;SDS011;5508;49.150;11.030;2023-08-20T06:52:59;6.85;;;6.15;;
10910;SDS011;5508;49.150;11.030;2023-08-20T06:55:59;9.55;;;6.25;;
10910;SDS011;5508;49.150;11.030;2023-08-20T06:59:00;7.57;;;5.80;;
10910;SDS011;5508;49.150;11.030;2023-08-20T07:02:03;7.65;;;6.30;;
10910;SDS011;5508;49.150;11.030;2023-08-20T07:05:03;7.85;;;6.82;;
10910;SDS011;5508;49.150;11.030;2023-08-20T07:08:04;11.70;;;6.50;;
10910;SDS011;5508;49.150;11.030;2023-08-20T07:11:05;9.10;;;6.28;;
10910;SDS011;5508;49.150;11.030;2023-08-20T07:14:06;10.48;;;6.72;;
10910;SDS011;5508;49.150;11.030;2023-08-20T07:17:06;10.90;;;6.53;;
10910;SDS011;5508;49.150;11.030;2023-08-20T07:20:07;6.70;;;6.07;;
10910;SDS011;5508;49.150;11.030;2023-08-20T07:23:07;7.32;;;6.32;;
10910;SDS011;5508;49.150;11.030;2023-08-20T07:26:09;7.53;;;6.50;;
10910;SDS011;5508;49.150;11.030;2023-08-20T07:29:11;7.70;;;6.28;;
10910;SDS011;5508;49.150;11.030;2023-08-20T07:32:12;11.07;;;6.60;;
10910;SDS011;5508;49.150;11.030;2023-08-20T07:35:13;11.68;;;6.47;;
10910;SDS011;5508;49.150;11.030;2023-08-20T07:38:13;7.15;;;6.45;;
10910;SDS011;5508;49.150;11.030;2023-08-20T07:41:14;7.93;;;6.38;;
10910;SDS011;5508;49.150;11.030;2023-08-20T07:44:14;9.82;;;6.05;;
10910;SDS011;5508;49.150;11.030;2023-08-20T07:47:15;6.85;;;6.05;;
10910;SDS011;5508;49.150;11.030;2023-08-20T07:50:15;8.40;;;6.28;;
10910;SDS011;5508;49.150;11.030;2023-08-20T07:53:16;7.85;;;5.70;;
10910;SDS011;5508;49.150;11.030;2023-08-20T07:56:17;7.07;;;5.95;;
10910;SDS011;5508;49.150;11.030;2023-08-20T07:59:18;8.50;;;6.38;;
10910;SDS011;5508;49.150;11.030;2023-08-20T08:02:18;7.47;;;6.10;;
10910;SDS011;5508;49.150;11.030;2023-08-20T08:05:19;7.72;;;6.22;;
10910;SDS011;5508;49.150;11.030;2023-08-20T08:08:20;6.60;;;5.93;;
10910;SDS011;5508;49.150;11.030;2023-08-20T08:11:21;8.60;;;6.25;;
10910;SDS011;5508;49.150;11.030;2023-08-20T08:14:22;8.32;;;5.72;;
10910;SDS011;5508;49.150;11.030;2023-08-20T08:17:23;11.27;;;7.80;;
10910;SDS011;5508;49.150;11.030;2023-08-20T08:20:23;8.68;;;7.30;;
10910;SDS011;5508;49.150;11.030;2023-08-20T08:23:24;9.50;;;6.43;;
10910;SDS011;5508;49.150;11.030;2023-08-20T08:26:24;10.23;;;6.47;;
10910;SDS011;5508;49.150;11.030;2023-08-20T08:29:25;8.60;;;5.85;;
10910;SDS011;5508;49.150;11.030;2023-08-20T08:32:25;8.68;;;6.60;;
10910;SDS011;5508;49.150;11.030;2023-08-20T08:35:26;7.18;;;5.85;;
10910;SDS011;5508;49.150;11.030;2023-08-20T08:38:27;7.82;;;5.82;;
10910;SDS011;5508;49.150;11.030;2023-08-20T08:41:27;6.55;;;5.90;;
10910;SDS011;5508;49.150;11.030;2023-08-20T08:44:30;8.20;;;6.53;;
10910;SDS011;5508;49.150;11.030;2023-08-20T08:47:32;8.52;;;5.50;;
10910;SDS011;5508;49.150;11.030;2023-08-20T08:50:33;7.57;;;5.63;;
10910;SDS011;5508;49.150;11.030;2023-08-20T08:53:34;9.15;;;5.28;;
10910;SDS011;5508;49.150;11.030;2023-08-20T08:56:35;9.65;;;5.68;;
10910;SDS011;5508;49.150;11.030;2023-08-20T08:59:36;8.52;;;5.43;;
10910;SDS011;5508;49.150;11.030;2023-08-20T09:02:36;7.40;;;5.82;;
10910;SDS011;5508;49.150;11.030;2023-08-20T09:05:47;6.85;;;5.05;;
10910;SDS011;5508;49.150;11.030;2023-08-20T09:08:48;7.05;;;5.00;;
10910;SDS011;5508;49.150;11.030;2023-08-20T09:11:49;6.90;;;4.90;;
10910;SDS011;5508;49.150;11.030;2023-08-20T09:14:50;5.75;;;4.60;;
10910;SDS011;5508;49.150;11.030;2023-08-20T09:17:51;9.85;;;5.40;;
10910;SDS011;5508;49.150;11.030;2023-08-20T09:20:51;6.53;;;4.95;;
10910;SDS011;5508;49.150;11.030;2023-08-20T09:23:52;8.15;;;4.60;;
10910;SDS011;5508;49.150;11.030;2023-08-20T09:26:56;10.30;;;4.47;;
10910;SDS011;5508;49.150;11.030;2023-08-20T09:29:59;7.18;;;3.88;;
10910;SDS011;5508;49.150;11.030;2023-08-20T09:33:03;6.88;;;4.43;;
10910;SDS011;5508;49.150;11.030;2023-08-20T09:36:11;6.40;;;4.65;;
10910;SDS011;5508;49.150;11.030;2023-08-20T09:39:12;6.55;;;4.72;;
10910;SDS011;5508;49.150;11.030;2023-08-20T09:42:13;4.43;;;3.80;;
10910;SDS011;5508;49.150;11.030;2023-08-20T09:45:14;7.75;;;4.00;;
10910;SDS011;5508;49.150;11.030;2023-08-20T09:48:17;7.30;;;4.55;;
10910;SDS011;5508;49.150;11.030;2023-08-20T09:51:24;8.70;;;4.00;;
10910;SDS011;5508;49.150;11.030;2023-08-20T09:54:35;5.72;;;3.95;;
10910;SDS011;5508;49.150;11.030;2023-08-20T09:57:43;5.20;;;4.05;;
10910;SDS011;5508;49.150;11.030;2023-08-20T10:00:44;6.38;;;4.20;;
10910;SDS011;5508;49.150;11.030;2023-08-20T10:03:44;6.28;;;3.47;;
10910;SDS011;5508;49.150;11.030;2023-08-20T10:06:46;6.68;;;3.85;;
10910;SDS011;5508;49.150;11.030;2023-08-20T10:09:47;8.30;;;4.13;;
10910;SDS011;5508;49.150;11.030;2023-08-20T10:12:50;6.30;;;4.22;;
10910;SDS011;5508;49.150;11.030;2023-08-20T10:15:52;6.30;;;4.00;;
10910;SDS011;5508;49.150;11.030;2023-08-20T10:18:54;7.55;;;4.15;;
10910;SDS011;5508;49.150;11.030;2023-08-20T10:21:59;10.27;;;4.00;;
10910;SDS011;5508;49.150;11.030;2023-08-20T10:25:05;4.38;;;3.92;;
10910;SDS011;5508;49.150;11.030;2023-08-20T10:28:22;6.38;;;4.35;;
10910;SDS011;5508;49.150;11.030;2023-08-20T10:31:25;4.03;;;3.63;;
10910;SDS011;5508;49.150;11.030;2023-08-20T10:34:32;5.47;;;4.32;;
10910;SDS011;5508;49.150;11.030;2023-08-20T10:37:35;6.18;;;3.83;;
10910;SDS011;5508;49.150;11.030;2023-08-20T10:40:46;10.43;;;4.10;;
10910;SDS011;5508;49.150;11.030;2023-08-20T10:43:48;9.13;;;4.15;;
10910;SDS011;5508;49.150;11.030;2023-08-20T10:46:49;5.50;;;4.10;;
10910;SDS011;5508;49.150;11.030;2023-08-20T10:49:52;7.75;;;4.32;;
10910;SDS011;5508;49.150;11.030;2023-08-20T10:52:56;6.35;;;4.05;;
10910;SDS011;5508;49.150;11.030;2023-08-20T10:56:06;5.70;;;4.35;;
10910;SDS011;5508;49.150;11.030;2023-08-20T10:59:15;6.75;;;4.00;;
10910;SDS011;5508;49.150;11.030;2023-08-20T11:02:22;15.50;;;3.78;;
10910;SDS011;5508;49.150;11.030;2023-08-20T11:05:24;6.78;;;3.70;;
10910;SDS011;5508;49.150;11.030;2023-08-20T11:08:25;5.95;;;3.80;;
10910;SDS011;5508;49.150;11.030;2023-08-20T11:11:25;4.88;;;3.80;;
10910;SDS011;5508;49.150;11.030;2023-08-20T11:14:26;5.68;;;3.70;;
10910;SDS011;5508;49.150;11.030;2023-08-20T11:17:26;5.80;;;3.63;;
10910;SDS011;5508;49.150;11.030;2023-08-20T11:20:27;6.38;;;3.72;;
10910;SDS011;5508;49.150;11.030;2023-08-20T11:23:28;5.18;;;3.40;;
10910;SDS011;5508;49.150;11.030;2023-08-20T11:26:29;6.63;;;3.83;;
10910;SDS011;5508;49.150;11.030;2023-08-20T11:29:30;6.97;;;3.70;;
10910;SDS011;5508;49.150;11.030;2023-08-20T11:32:31;4.32;;;3.55;;
10910;SDS011;5508;49.150;11.030;2023-08-20T11:35:32;4.35;;;3.70;;
10910;SDS011;5508;49.150;11.030;2023-08-20T11:38:33;5.45;;;3.38;;
10910;SDS011;5508;49.150;11.030;2023-08-20T11:41:38;4.03;;;3.58;;
10910;SDS011;5508;49.150;11.030;2023-08-20T11:44:43;4.95;;;3.40;;
10910;SDS011;5508;49.150;11.030;2023-08-20T11:47:45;4.95;;;3.50;;
10910;SDS011;5508;49.150;11.030;2023-08-20T11:50:46;6.85;;;3.60;;
10910;SDS011;5508;49.150;11.030;2023-08-20T11:53:50;5.15;;;3.33;;
10910;SDS011;5508;49.150;11.030;2023-08-20T11:56:50;6.40;;;3.95;;
10910;SDS011;5508;49.150;11.030;2023-08-20T11:59:52;6.57;;;3.90;;
10910;SDS011;5508;49.150;11.030;2023-08-20T12:02:55;4.65;;;3.30;;
10910;SDS011;5508;49.150;11.030;2023-08-20T12:05:57;5.05;;;4.13;;
10910;SDS011;5508;49.150;11.030;2023-08-20T12:08:58;5.70;;;3.78;;
10910;SDS011;5508;49.150;11.030;2023-08-20T12:11:58;3.60;;;3.30;;
10910;SDS011;5508;49.150;11.030;2023-08-20T12:14:59;5.28;;;3.90;;
10910;SDS011;5508;49.150;11.030;2023-08-20T12:18:04;4.53;;;3.83;;
10910;SDS011;5508;49.150;11.030;2023-08-20T12:21:05;4.18;;;3.35;;
10910;SDS011;5508;49.150;11.030;2023-08-20T12:24:06;4.97;;;3.50;;
10910;SDS011;5508;49.150;11.030;2023-08-20T12:27:07;7.47;;;4.07;;
10910;SDS011;5508;49.150;11.030;2023-08-20T12:30:08;5.53;;;3.50;;
10910;SDS011;5508;49.150;11.030;2023-08-20T12:33:09;6.55;;;3.38;;
10910;SDS011;5508;49.150;11.030;2023-08-20T12:36:11;5.72;;;3.30;;
10910;SDS011;5508;49.150;11.030;2023-08-20T12:39:11;4.90;;;3.80;;
10910;SDS011;5508;49.150;11.030;2023-08-20T12:42:13;6.93;;;3.60;;
10910;SDS011;5508;49.150;11.030;2023-08-20T12:45:14;6.57;;;3.72;;
10910;SDS011;5508;49.150;11.030;2023-08-20T12:48:14;4.80;;;3.70;;
10910;SDS011;5508;49.150;11.030;2023-08-20T12:51:16;6.20;;;3.88;;
10910;SDS011;5508;49.150;11.030;2023-08-20T12:54:17;5.85;;;3.78;;
10910;SDS011;5508;49.150;11.030;2023-08-20T12:57:18;5.63;;;3.80;;
10910;SDS011;5508;49.150;11.030;2023-08-20T13:00:18;5.38;;;3.70;;
10910;SDS011;5508;49.150;11.030;2023-08-20T13:03:19;5.47;;;3.58;;
10910;SDS011;5508;49.150;11.030;2023-08-20T13:06:20;6.72;;;4.03;;
10910;SDS011;5508;49.150;11.030;2023-08-20T13:09:21;6.68;;;3.38;;
10910;SDS011;5508;49.150;11.030;2023-08-20T13:12:22;6.95;;;4.10;;
10910;SDS011;5508;49.150;11.030;2023-08-20T13:15:27;5.95;;;3.67;;
10910;SDS011;5508;49.150;11.030;2023-08-20T13:18:28;6.45;;;3.50;;
10910;SDS011;5508;49.150;11.030;2023-08-20T13:21:28;7.65;;;3.42;;
10910;SDS011;5508;49.150;11.030;2023-08-20T13:24:29;7.45;;;3.72;;
10910;SDS011;5508;49.150;11.030;2023-08-20T13:27:30;5.68;;;3.70;;
10910;SDS011;5508;49.150;11.030;2023-08-20T13:30:31;5.10;;;3.60;;
10910;SDS011;5508;49.150;11.030;2023-08-20T13:33:33;4.78;;;3.58;;
10910;SDS011;5508;49.150;11.030;2023-08-20T13:36:33;5.60;;;3.92;;
10910;SDS011;5508;49.150;11.030;2023-08-20T13:39:34;4.30;;;3.65;;
10910;SDS011;5508;49.150;11.030;2023-08-20T13:42:35;4.78;;;3.70;;
10910;SDS011;5508;49.150;11.030;2023-08-20T13:45:36;5.53;;;3.65;;
10910;SDS011;5508;49.150;11.030;2023-08-20T13:48:36;5.03;;;3.50;;
10910;SDS011;5508;49.150;11.030;2023-08-20T13:51:37;4.75;;;3.55;;
10910;SDS011;5508;49.150;11.030;2023-08-20T13:54:37;5.13;;;3.42;;
10910;SDS011;5508;49.150;11.030;2023-08-20T13:57:38;5.65;;;3.40;;
10910;SDS011;5508;49.150;11.030;2023-08-20T14:00:39;4.13;;;3.38;;
10910;SDS011;5508;49.150;11.030;2023-08-20T14:03:40;5.43;;;3.50;;
10910;SDS011;5508;49.150;11.030;2023-08-20T14:06:41;7.90;;;3.70;;
10910;SDS011;5508;49.150;11.030;2023-08-20T14:09:41;6.28;;;4.03;;
10910;SDS011;5508;49.150;11.030;2023-08-20T14:12:42;6.38;;;4.07;;
10910;SDS011;5508;49.150;11.030;2023-08-20T14:15:43;6.22;;;4.13;;
10910;SDS011;5508;49.150;11.030;2023-08-20T14:18:43;7.80;;;3.50;;
10910;SDS011;5508;49.150;11.030;2023-08-20T14:21:44;6.82;;;3.97;;
10910;SDS011;5508;49.150;11.030;2023-08-20T14:24:45;6.75;;;4.15;;
10910;SDS011;5508;49.150;11.030;2023-08-20T14:27:46;5.78;;;3.97;;
10910;SDS011;5508;49.150;11.030;2023-08-20T14:30:46;6.75;;;3.83;;
10910;SDS011;5508;49.150;11.030;2023-08-20T14:33:49;6.20;;;3.75;;
10910;SDS011;5508;49.150;11.030;2023-08-20T14:36:50;7.30;;;3.80;;
10910;SDS011;5508;49.150;11.030;2023-08-20T14:39:50;5.88;;;3.92;;
10910;SDS011;5508;49.150;11.030;2023-08-20T14:42:51;7.35;;;3.85;;
10910;SDS011;5508;49.150;11.030;2023-08-20T14:45:51;5.95;;;3.50;;
10910;SDS011;5508;49.150;11.030;2023-08-20T14:48:52;6.88;;;4.20;;
10910;SDS011;5508;49.150;11.030;2023-08-20T14:51:55;7.18;;;3.70;;
10910;SDS011;5508;49.150;11.030;2023-08-20T14:54:55;6.32;;;3.70;;
10910;SDS011;5508;49.150;11.030;2023-08-20T14:57:56;7.63;;;3.90;;
10910;SDS011;5508;49.150;11.030;2023-08-20T15:00:56;5.60;;;3.85;;
10910;SDS011;5508;49.150;11.030;2023-08-20T15:03:57;6.97;;;4.00;;
10910;SDS011;5508;49.150;11.030;2023-08-20T15:06:57;5.38;;;3.90;;
10910;SDS011;5508;49.150;11.030;2023-08-20T15:09:59;8.48;;;4.00;;
10910;SDS011;5508;49.150;11.030;2023-08-20T15:12:59;7.90;;;3.53;;
10910;SDS011;5508;49.150;11.030;2023-08-20T15:16:00;7.63;;;3.53;;
10910;SDS011;5508;49.150;11.030;2023-08-20T15:19:01;5.50;;;3.60;;
10910;SDS011;5508;49.150;11.030;2023-08-20T15:22:01;4.88;;;3.50;;
10910;SDS011;5508;49.150;11.030;2023-08-20T15:25:03;5.60;;;3.53;;
10910;SDS011;5508;49.150;11.030;2023-08-20T15:28:09;6.55;;;3.63;;
10910;SDS011;5508;49.150;11.030;2023-08-20T15:31:11;5.13;;;3.67;;
10910;SDS011;5508;49.150;11.030;2023-08-20T15:34:11;11.50;;;3.80;;
10910;SDS011;5508;49.150;11.030;2023-08-20T15:37:12;5.68;;;3.75;;
10910;SDS011;5508;49.150;11.030;2023-08-20T15:40:13;7.93;;;3.53;;
10910;SDS011;5508;49.150;11.030;2023-08-20T15:43:13;6.40;;;3.17;;
10910;SDS011;5508;49.150;11.030;2023-08-20T15:46:14;8.00;;;3.83;;
10910;SDS011;5508;49.150;11.030;2023-08-20T15:49:14;6.50;;;3.70;;
10910;SDS011;5508;49.150;11.030;2023-08-20T15:52:15;5.45;;;3.53;;
10910;SDS011;5508;49.150;11.030;2023-08-20T15:55:16;7.38;;;3.85;;
10910;SDS011;5508;49.150;11.030;2023-08-20T15:58:16;5.97;;;3.65;;
10910;SDS011;5508;49.150;11.030;2023-08-20T16:01:17;5.40;;;3.65;;
10910;SDS011;5508;49.150;11.030;2023-08-20T16:04:17;4.85;;;3.20;;
10910;SDS011;5508;49.150;11.030;2023-08-20T16:07:18;4.57;;;3.35;;
10910;SDS011;5508;49.150;11.030;2023-08-20T16:10:19;4.25;;;3.28;;
10910;SDS011;5508;49.150;11.030;2023-08-20T16:13:19;7.82;;;3.55;;
10910;SDS011;5508;49.150;11.030;2023-08-20T16:16:20;5.30;;;3.08;;
10910;SDS011;5508;49.150;11.030;2023-08-20T16:19:20;3.83;;;3.53;;
10910;SDS011;5508;49.150;11.030;2023-08-20T16:22:21;7.32;;;3.58;;
10910;SDS011;5508;49.150;11.030;2023-08-20T16:25:22;7.63;;;3.60;;
10910;SDS011;5508;49.150;11.030;2023-08-20T16:28:23;6.90;;;3.35;;
10910;SDS011;5508;49.150;11.030;2023-08-20T16:31:24;7.72;;;3.42;;
10910;SDS011;5508;49.150;11.030;2023-08-20T16:34:24;5.50;;;3.38;;
10910;SDS011;5508;49.150;11.030;2023-08-20T16:37:25;6.20;;;3.97;;
10910;SDS011;5508;49.150;11.030;2023-08-20T16:40:25;5.85;;;3.50;;
10910;SDS011;5508;49.150;11.030;2023-08-20T16:43:26;5.22;;;3.50;;
10910;SDS011;5508;49.150;11.030;2023-08-20T16:46:27;11.30;;;3.17;;
10910;SDS011;5508;49.150;11.030;2023-08-20T16:49:27;6.88;;;3.63;;
10910;SDS011;5508;49.150;11.030;2023-08-20T16:52:28;4.95;;;3.47;;
10910;SDS011;5508;49.150;11.030;2023-08-20T16:55:28;7.20;;;3.58;;
10910;SDS011;5508;49.150;11.030;2023-08-20T16:58:29;7.00;;;3.80;;
10910;SDS011;5508;49.150;11.030;2023-08-20T17:01:30;5.40;;;3.40;;
10910;SDS011;5508;49.150;11.030;2023-08-20T17:04:31;7.07;;;3.90;;
10910;SDS011;5508;49.150;11.030;2023-08-20T17:07:33;6.95;;;3.35;;
10910;SDS011;5508;49.150;11.030;2023-08-20T17:10:33;5.25;;;3.97;;
10910;SDS011;5508;49.150;11.030;2023-08-20T17:13:35;5.97;;;3.83;;
10910;SDS011;5508;49.150;11.030;2023-08-20T17:16:37;6.88;;;3.83;;
10910;SDS011;5508;49.150;11.030;2023-08-20T17:19:37;7.78;;;3.70;;
10910;SDS011;5508;49.150;11.030;2023-08-20T17:22:38;5.93;;;3.90;;
10910;SDS011;5508;49.150;11.030;2023-08-20T17:25:38;7.97;;;4.30;;
10910;SDS011;5508;49.150;11.030;2023-08-20T17:28:40;6.55;;;4.10;;
10910;SDS011;5508;49.150;11.030;2023-08-20T17:31:41;5.65;;;4.22;;
10910;SDS011;5508;49.150;11.030;2023-08-20T17:34:41;9.90;;;4.95;;
10910;SDS011;5508;49.150;11.030;2023-08-20T17:37:42;9.75;;;4.72;;
10910;SDS011;5508;49.150;11.030;2023-08-20T17:40:42;6.45;;;4.63;;
10910;SDS011;5508;49.150;11.030;2023-08-20T17:43:43;8.82;;;4.85;;
10910;SDS011;5508;49.150;11.030;2023-08-20T17:46:47;10.25;;;5.00;;
10910;SDS011;5508;49.150;11.030;2023-08-20T17:49:48;4.97;;;4.43;;
10910;SDS011;5508;49.150;11.030;2023-08-20T17:52:49;12.15;;;4.68;;
10910;SDS011;5508;49.150;11.030;2023-08-20T17:55:50;7.03;;;5.20;;
10910;SDS011;5508;49.150;11.030;2023-08-20T17:58:52;6.93;;;5.18;;
10910;SDS011;5508;49.150;11.030;2023-08-20T18:01:52;10.43;;;5.03;;
10910;SDS011;5508;49.150;11.030;2023-08-20T18:04:53;7.28;;;5.10;;
10910;SDS011;5508;49.150;11.030;2023-08-20T18:07:55;8.80;;;4.90;;
10910;SDS011;5508;49.150;11.030;2023-08-20T18:10:55;7.22;;;5.60;;
10910;SDS011;5508;49.150;11.030;2023-08-20T18:13:56;7.20;;;5.80;;
10910;SDS011;5508;49.150;11.030;2023-08-20T18:16:56;9.20;;;6.40;;